sensor_id;sensor_type;location;lat;lon;timestamp;P1;durP1;ratioP1;P2;durP2;ratioP2
35444;SDS011;21562;49.476;6.086;2023-07-16T00:00:50;6.32;;;3.00;;
35444;SDS011;21562;49.476;6.086;2023-07-16T00:03:15;7.43;;;1.70;;
35444;SDS011;21562;49.476;6.086;2023-07-16T00:05:41;8.13;;;2.00;;
35444;SDS011;21562;49.476;6.086;2023-07-16T00:08:07;8.95;;;2.38;;
35444;SDS011;21562;49.476;6.086;2023-07-16T00:10:36;5.93;;;2.10;;
35444;SDS011;21562;49.476;6.086;2023-07-16T00:13:05;6.60;;;1.85;;
35444;SDS011;21562;49.476;6.086;2023-07-16T00:15:31;9.95;;;1.95;;
35444;SDS011;21562;49.476;6.086;2023-07-16T00:17:57;10.77;;;2.28;;
35444;SDS011;21562;49.476;6.086;2023-07-16T00:20:22;11.68;;;2.90;;
35444;SDS011;21562;49.476;6.086;2023-07-16T00:22:51;4.03;;;1.73;;
35444;SDS011;21562;49.476;6.086;2023-07-16T00:25:17;8.88;;;2.38;;
35444;SDS011;21562;49.476;6.086;2023-07-16T00:27:43;9.80;;;2.50;;
35444;SDS011;21562;49.476;6.086;2023-07-16T00:30:08;10.00;;;2.20;;
35444;SDS011;21562;49.476;6.086;2023-07-16T00:32:34;9.00;;;2.05;;
35444;SDS011;21562;49.476;6.086;2023-07-16T00:35:03;7.82;;;2.25;;
35444;SDS011;21562;49.476;6.086;2023-07-16T00:37:30;7.00;;;2.08;;
35444;SDS011;21562;49.476;6.086;2023-07-16T00:39:58;8.88;;;2.33;;
35444;SDS011;21562;49.476;6.086;2023-07-16T00:42:23;6.60;;;1.90;;
35444;SDS011;21562;49.476;6.086;2023-07-16T00:44:49;10.88;;;2.30;;
35444;SDS011;21562;49.476;6.086;2023-07-16T00:47:15;4.85;;;1.77;;
35444;SDS011;21562;49.476;6.086;2023-07-16T00:49:41;10.45;;;2.35;;
35444;SDS011;21562;49.476;6.086;2023-07-16T00:52:09;12.15;;;1.92;;
35444;SDS011;21562;49.476;6.086;2023-07-16T00:54:39;7.38;;;1.90;;
35444;SDS011;21562;49.476;6.086;2023-07-16T00:57:05;15.20;;;2.65;;
35444;SDS011;21562;49.476;6.086;2023-07-16T00:59:32;7.82;;;1.95;;
35444;SDS011;21562;49.476;6.086;2023-07-16T01:01:57;6.78;;;2.28;;
35444;SDS011;21562;49.476;6.086;2023-07-16T01:04:23;7.00;;;2.22;;
35444;SDS011;21562;49.476;6.086;2023-07-16T01:06:50;10.43;;;2.10;;
35444;SDS011;21562;49.476;6.086;2023-07-16T01:09:19;8.93;;;1.92;;
35444;SDS011;21562;49.476;6.086;2023-07-16T01:11:46;7.57;;;2.20;;
35444;SDS011;21562;49.476;6.086;2023-07-16T01:14:13;9.75;;;2.78;;
35444;SDS011;21562;49.476;6.086;2023-07-16T01:16:42;7.55;;;2.20;;
35444;SDS011;21562;49.476;6.086;2023-07-16T01:19:08;11.38;;;2.63;;
35444;SDS011;21562;49.476;6.086;2023-07-16T01:21:35;10.55;;;2.40;;
35444;SDS011;21562;49.476;6.086;2023-07-16T01:29:49;8.43;;;2.00;;
35444;SDS011;21562;49.476;6.086;2023-07-16T01:32:21;8.20;;;1.92;;
35444;SDS011;21562;49.476;6.086;2023-07-16T01:34:48;9.82;;;2.03;;
35444;SDS011;21562;49.476;6.086;2023-07-16T01:37:16;6.85;;;2.20;;
35444;SDS011;21562;49.476;6.086;2023-07-16T01:39:41;6.72;;;2.13;;
35444;SDS011;21562;49.476;6.086;2023-07-16T01:42:07;9.15;;;2.08;;
35444;SDS011;21562;49.476;6.086;2023-07-16T01:44:33;11.35;;;3.10;;
35444;SDS011;21562;49.476;6.086;2023-07-16T01:47:06;15.93;;;2.78;;
35444;SDS011;21562;49.476;6.086;2023-07-16T01:49:38;15.32;;;2.20;;
35444;SDS011;21562;49.476;6.086;2023-07-16T01:52:06;6.32;;;1.77;;
35444;SDS011;21562;49.476;6.086;2023-07-16T01:54:33;10.68;;;2.20;;
35444;SDS011;21562;49.476;6.086;2023-07-16T01:56:59;11.23;;;3.25;;
35444;SDS011;21562;49.476;6.086;2023-07-16T01:59:25;8.00;;;1.83;;
35444;SDS011;21562;49.476;6.086;2023-07-16T02:01:51;8.38;;;2.17;;
35444;SDS011;21562;49.476;6.086;2023-07-16T02:04:16;6.00;;;2.17;;
35444;SDS011;21562;49.476;6.086;2023-07-16T02:06:42;17.33;;;2.70;;
35444;SDS011;21562;49.476;6.086;2023-07-16T02:09:08;10.05;;;2.67;;
35444;SDS011;21562;49.476;6.086;2023-07-16T02:11:34;8.52;;;2.30;;
35444;SDS011;21562;49.476;6.086;2023-07-16T02:14:00;5.68;;;1.83;;
35444;SDS011;21562;49.476;6.086;2023-07-16T02:16:26;13.65;;;3.42;;
35444;SDS011;21562;49.476;6.086;2023-07-16T02:18:51;10.05;;;2.20;;
35444;SDS011;21562;49.476;6.086;2023-07-16T02:21:17;11.65;;;2.45;;
35444;SDS011;21562;49.476;6.086;2023-07-16T02:23:43;9.52;;;2.10;;
35444;SDS011;21562;49.476;6.086;2023-07-16T02:26:08;9.30;;;1.90;;
35444;SDS011;21562;49.476;6.086;2023-07-16T02:28:34;14.07;;;2.42;;
35444;SDS011;21562;49.476;6.086;2023-07-16T02:30:59;14.35;;;2.35;;
35444;SDS011;21562;49.476;6.086;2023-07-16T02:33:25;16.02;;;2.42;;
35444;SDS011;21562;49.476;6.086;2023-07-16T02:35:51;9.23;;;2.42;;
35444;SDS011;21562;49.476;6.086;2023-07-16T02:38:17;7.75;;;1.92;;
35444;SDS011;21562;49.476;6.086;2023-07-16T02:40:46;14.02;;;2.63;;
35444;SDS011;21562;49.476;6.086;2023-07-16T02:43:12;8.00;;;2.00;;
35444;SDS011;21562;49.476;6.086;2023-07-16T02:45:39;8.27;;;2.22;;
35444;SDS011;21562;49.476;6.086;2023-07-16T02:48:05;7.90;;;1.70;;
35444;SDS011;21562;49.476;6.086;2023-07-16T02:50:34;8.90;;;2.22;;
35444;SDS011;21562;49.476;6.086;2023-07-16T02:53:04;11.10;;;2.33;;
35444;SDS011;21562;49.476;6.086;2023-07-16T02:55:30;8.52;;;2.35;;
35444;SDS011;21562;49.476;6.086;2023-07-16T02:57:56;13.43;;;2.33;;
35444;SDS011;21562;49.476;6.086;2023-07-16T03:00:22;15.60;;;3.03;;
35444;SDS011;21562;49.476;6.086;2023-07-16T03:02:48;15.35;;;2.40;;
35444;SDS011;21562;49.476;6.086;2023-07-16T03:05:16;9.27;;;2.75;;
35444;SDS011;21562;49.476;6.086;2023-07-16T03:07:42;9.60;;;2.65;;
35444;SDS011;21562;49.476;6.086;2023-07-16T03:10:08;16.25;;;2.85;;
35444;SDS011;21562;49.476;6.086;2023-07-16T03:12:34;9.77;;;2.35;;
35444;SDS011;21562;49.476;6.086;2023-07-16T03:14:59;9.15;;;2.45;;
35444;SDS011;21562;49.476;6.086;2023-07-16T03:17:25;8.85;;;2.30;;
35444;SDS011;21562;49.476;6.086;2023-07-16T03:19:51;10.27;;;2.63;;
35444;SDS011;21562;49.476;6.086;2023-07-16T03:22:16;14.10;;;2.80;;
35444;SDS011;21562;49.476;6.086;2023-07-16T03:24:42;9.40;;;2.25;;
35444;SDS011;21562;49.476;6.086;2023-07-16T03:27:07;13.02;;;2.65;;
35444;SDS011;21562;49.476;6.086;2023-07-16T03:29:33;7.75;;;1.90;;
35444;SDS011;21562;49.476;6.086;2023-07-16T03:31:59;16.73;;;2.88;;
35444;SDS011;21562;49.476;6.086;2023-07-16T03:34:24;12.15;;;3.17;;
35444;SDS011;21562;49.476;6.086;2023-07-16T03:36:50;11.10;;;2.33;;
35444;SDS011;21562;49.476;6.086;2023-07-16T03:39:16;13.55;;;2.13;;
35444;SDS011;21562;49.476;6.086;2023-07-16T03:41:42;13.13;;;2.58;;
35444;SDS011;21562;49.476;6.086;2023-07-16T03:44:07;11.05;;;2.60;;
35444;SDS011;21562;49.476;6.086;2023-07-16T03:46:33;11.43;;;2.65;;
35444;SDS011;21562;49.476;6.086;2023-07-16T03:48:58;7.60;;;2.22;;
35444;SDS011;21562;49.476;6.086;2023-07-16T03:51:24;11.48;;;2.70;;
35444;SDS011;21562;49.476;6.086;2023-07-16T03:53:50;13.13;;;3.45;;
35444;SDS011;21562;49.476;6.086;2023-07-16T03:56:15;15.50;;;2.30;;
35444;SDS011;21562;49.476;6.086;2023-07-16T03:58:41;13.45;;;2.58;;
35444;SDS011;21562;49.476;6.086;2023-07-16T04:01:06;7.28;;;2.53;;
35444;SDS011;21562;49.476;6.086;2023-07-16T04:03:32;8.90;;;2.88;;
35444;SDS011;21562;49.476;6.086;2023-07-16T04:06:04;15.10;;;2.88;;
35444;SDS011;21562;49.476;6.086;2023-07-16T04:08:31;11.05;;;2.95;;
35444;SDS011;21562;49.476;6.086;2023-07-16T04:10:57;13.77;;;2.35;;
35444;SDS011;21562;49.476;6.086;2023-07-16T04:13:23;14.05;;;2.45;;
35444;SDS011;21562;49.476;6.086;2023-07-16T04:15:49;8.68;;;2.17;;
35444;SDS011;21562;49.476;6.086;2023-07-16T04:18:14;9.40;;;2.60;;
35444;SDS011;21562;49.476;6.086;2023-07-16T04:20:40;9.50;;;2.25;;
35444;SDS011;21562;49.476;6.086;2023-07-16T04:23:06;17.70;;;3.33;;
35444;SDS011;21562;49.476;6.086;2023-07-16T04:25:31;6.05;;;2.17;;
35444;SDS011;21562;49.476;6.086;2023-07-16T04:27:57;14.65;;;2.97;;
35444;SDS011;21562;49.476;6.086;2023-07-16T04:30:22;9.23;;;2.45;;
35444;SDS011;21562;49.476;6.086;2023-07-16T04:32:48;12.60;;;2.17;;
35444;SDS011;21562;49.476;6.086;2023-07-16T04:35:14;10.80;;;3.10;;
35444;SDS011;21562;49.476;6.086;2023-07-16T04:37:39;14.10;;;3.65;;
35444;SDS011;21562;49.476;6.086;2023-07-16T04:40:06;7.72;;;2.42;;
35444;SDS011;21562;49.476;6.086;2023-07-16T04:42:32;17.25;;;2.50;;
35444;SDS011;21562;49.476;6.086;2023-07-16T04:44:57;12.77;;;2.42;;
35444;SDS011;21562;49.476;6.086;2023-07-16T04:47:23;8.02;;;2.40;;
35444;SDS011;21562;49.476;6.086;2023-07-16T04:49:49;9.55;;;2.72;;
35444;SDS011;21562;49.476;6.086;2023-07-16T04:52:14;9.30;;;2.75;;
35444;SDS011;21562;49.476;6.086;2023-07-16T04:54:40;16.27;;;3.33;;
35444;SDS011;21562;49.476;6.086;2023-07-16T04:57:06;13.32;;;2.80;;
35444;SDS011;21562;49.476;6.086;2023-07-16T04:59:32;12.43;;;3.72;;
35444;SDS011;21562;49.476;6.086;2023-07-16T05:01:58;12.15;;;3.08;;
35444;SDS011;21562;49.476;6.086;2023-07-16T05:04:23;8.73;;;2.50;;
35444;SDS011;21562;49.476;6.086;2023-07-16T05:06:49;8.43;;;2.42;;
35444;SDS011;21562;49.476;6.086;2023-07-16T05:09:16;15.13;;;2.72;;
35444;SDS011;21562;49.476;6.086;2023-07-16T05:11:42;12.90;;;3.42;;
35444;SDS011;21562;49.476;6.086;2023-07-16T05:14:08;13.13;;;3.15;;
35444;SDS011;21562;49.476;6.086;2023-07-16T05:16:33;14.48;;;2.60;;
35444;SDS011;21562;49.476;6.086;2023-07-16T05:18:59;9.02;;;3.13;;
35444;SDS011;21562;49.476;6.086;2023-07-16T05:21:24;14.52;;;2.65;;
35444;SDS011;21562;49.476;6.086;2023-07-16T05:23:50;21.13;;;3.22;;
35444;SDS011;21562;49.476;6.086;2023-07-16T05:26:15;10.07;;;2.75;;
35444;SDS011;21562;49.476;6.086;2023-07-16T05:28:41;13.85;;;2.83;;
35444;SDS011;21562;49.476;6.086;2023-07-16T05:31:07;11.43;;;3.60;;
35444;SDS011;21562;49.476;6.086;2023-07-16T05:33:32;10.82;;;2.90;;
35444;SDS011;21562;49.476;6.086;2023-07-16T05:35:58;13.40;;;2.67;;
35444;SDS011;21562;49.476;6.086;2023-07-16T05:38:24;14.40;;;3.40;;
35444;SDS011;21562;49.476;6.086;2023-07-16T05:40:49;16.63;;;4.05;;
35444;SDS011;21562;49.476;6.086;2023-07-16T05:43:15;9.45;;;3.67;;
35444;SDS011;21562;49.476;6.086;2023-07-16T05:45:40;21.58;;;4.45;;
35444;SDS011;21562;49.476;6.086;2023-07-16T05:48:06;11.82;;;4.05;;
35444;SDS011;21562;49.476;6.086;2023-07-16T05:50:32;10.15;;;3.42;;
35444;SDS011;21562;49.476;6.086;2023-07-16T05:52:57;13.05;;;4.15;;
35444;SDS011;21562;49.476;6.086;2023-07-16T05:55:23;11.95;;;4.05;;
35444;SDS011;21562;49.476;6.086;2023-07-16T05:57:50;15.07;;;4.65;;
35444;SDS011;21562;49.476;6.086;2023-07-16T06:00:15;14.43;;;3.42;;
35444;SDS011;21562;49.476;6.086;2023-07-16T06:02:41;11.20;;;3.65;;
35444;SDS011;21562;49.476;6.086;2023-07-16T06:05:07;16.30;;;3.20;;
35444;SDS011;21562;49.476;6.086;2023-07-16T06:07:33;22.00;;;3.90;;
35444;SDS011;21562;49.476;6.086;2023-07-16T06:09:59;8.93;;;3.85;;
35444;SDS011;21562;49.476;6.086;2023-07-16T06:12:24;13.65;;;3.55;;
35444;SDS011;21562;49.476;6.086;2023-07-16T06:14:50;11.93;;;3.40;;
35444;SDS011;21562;49.476;6.086;2023-07-16T06:17:16;16.85;;;3.03;;
35444;SDS011;21562;49.476;6.086;2023-07-16T06:19:42;19.45;;;3.80;;
35444;SDS011;21562;49.476;6.086;2023-07-16T06:22:08;18.45;;;4.18;;
35444;SDS011;21562;49.476;6.086;2023-07-16T06:24:34;11.10;;;3.03;;
35444;SDS011;21562;49.476;6.086;2023-07-16T06:27:00;12.38;;;3.88;;
35444;SDS011;21562;49.476;6.086;2023-07-16T06:29:25;14.70;;;3.30;;
35444;SDS011;21562;49.476;6.086;2023-07-16T06:31:57;14.13;;;4.70;;
35444;SDS011;21562;49.476;6.086;2023-07-16T06:34:24;11.30;;;3.20;;
35444;SDS011;21562;49.476;6.086;2023-07-16T06:36:50;16.35;;;3.83;;
35444;SDS011;21562;49.476;6.086;2023-07-16T06:39:16;12.40;;;3.30;;
35444;SDS011;21562;49.476;6.086;2023-07-16T06:41:42;19.55;;;3.67;;
35444;SDS011;21562;49.476;6.086;2023-07-16T06:44:08;17.58;;;4.88;;
35444;SDS011;21562;49.476;6.086;2023-07-16T06:46:33;14.52;;;4.03;;
35444;SDS011;21562;49.476;6.086;2023-07-16T06:48:59;15.27;;;4.18;;
35444;SDS011;21562;49.476;6.086;2023-07-16T06:51:24;15.40;;;3.60;;
35444;SDS011;21562;49.476;6.086;2023-07-16T06:53:50;12.98;;;3.55;;
35444;SDS011;21562;49.476;6.086;2023-07-16T06:56:15;13.55;;;3.20;;
35444;SDS011;21562;49.476;6.086;2023-07-16T06:58:41;9.10;;;3.05;;
35444;SDS011;21562;49.476;6.086;2023-07-16T07:01:07;17.23;;;3.97;;
35444;SDS011;21562;49.476;6.086;2023-07-16T07:03:32;24.20;;;4.40;;
35444;SDS011;21562;49.476;6.086;2023-07-16T07:06:01;13.98;;;4.13;;
35444;SDS011;21562;49.476;6.086;2023-07-16T07:08:28;10.20;;;3.90;;
35444;SDS011;21562;49.476;6.086;2023-07-16T07:10:54;18.55;;;4.07;;
35444;SDS011;21562;49.476;6.086;2023-07-16T07:13:20;14.90;;;4.25;;
35444;SDS011;21562;49.476;6.086;2023-07-16T07:15:45;14.45;;;4.20;;
35444;SDS011;21562;49.476;6.086;2023-07-16T07:18:11;19.77;;;4.82;;
35444;SDS011;21562;49.476;6.086;2023-07-16T07:20:37;12.60;;;4.30;;
35444;SDS011;21562;49.476;6.086;2023-07-16T07:23:04;13.32;;;4.13;;
35444;SDS011;21562;49.476;6.086;2023-07-16T07:25:30;15.45;;;3.97;;
35444;SDS011;21562;49.476;6.086;2023-07-16T07:27:56;13.98;;;4.13;;
35444;SDS011;21562;49.476;6.086;2023-07-16T07:30:21;16.15;;;4.72;;
35444;SDS011;21562;49.476;6.086;2023-07-16T07:32:47;14.27;;;4.28;;
35444;SDS011;21562;49.476;6.086;2023-07-16T07:35:13;13.18;;;4.68;;
35444;SDS011;21562;49.476;6.086;2023-07-16T07:37:38;13.27;;;5.03;;
35444;SDS011;21562;49.476;6.086;2023-07-16T07:40:04;20.25;;;4.97;;
35444;SDS011;21562;49.476;6.086;2023-07-16T07:42:30;14.68;;;4.70;;
35444;SDS011;21562;49.476;6.086;2023-07-16T07:44:56;12.88;;;4.50;;
35444;SDS011;21562;49.476;6.086;2023-07-16T07:47:22;21.75;;;6.00;;
35444;SDS011;21562;49.476;6.086;2023-07-16T07:49:47;13.90;;;4.63;;
35444;SDS011;21562;49.476;6.086;2023-07-16T07:52:13;13.93;;;5.32;;
35444;SDS011;21562;49.476;6.086;2023-07-16T07:54:39;17.58;;;5.55;;
35444;SDS011;21562;49.476;6.086;2023-07-16T07:57:04;13.43;;;5.30;;
35444;SDS011;21562;49.476;6.086;2023-07-16T07:59:30;20.38;;;5.88;;
35444;SDS011;21562;49.476;6.086;2023-07-16T08:01:57;17.42;;;6.05;;
35444;SDS011;21562;49.476;6.086;2023-07-16T08:04:23;13.23;;;5.65;;
35444;SDS011;21562;49.476;6.086;2023-07-16T08:06:50;18.77;;;6.40;;
35444;SDS011;21562;49.476;6.086;2023-07-16T08:09:16;17.00;;;6.88;;
35444;SDS011;21562;49.476;6.086;2023-07-16T08:11:41;19.92;;;6.15;;
35444;SDS011;21562;49.476;6.086;2023-07-16T08:14:07;12.98;;;5.55;;
35444;SDS011;21562;49.476;6.086;2023-07-16T08:16:32;14.55;;;5.90;;
35444;SDS011;21562;49.476;6.086;2023-07-16T08:18:58;11.82;;;5.70;;
35444;SDS011;21562;49.476;6.086;2023-07-16T08:21:24;14.18;;;6.22;;
35444;SDS011;21562;49.476;6.086;2023-07-16T08:23:49;17.13;;;6.93;;
35444;SDS011;21562;49.476;6.086;2023-07-16T08:26:16;11.90;;;6.32;;
35444;SDS011;21562;49.476;6.086;2023-07-16T08:28:42;20.88;;;11.63;;
35444;SDS011;21562;49.476;6.086;2023-07-16T08:31:07;15.10;;;6.65;;
35444;SDS011;21562;49.476;6.086;2023-07-16T08:33:34;14.27;;;6.72;;
35444;SDS011;21562;49.476;6.086;2023-07-16T08:36:00;12.73;;;6.38;;
35444;SDS011;21562;49.476;6.086;2023-07-16T08:38:25;18.73;;;6.72;;
35444;SDS011;21562;49.476;6.086;2023-07-16T08:40:51;13.60;;;6.65;;
35444;SDS011;21562;49.476;6.086;2023-07-16T08:43:17;18.83;;;7.65;;
35444;SDS011;21562;49.476;6.086;2023-07-16T08:45:43;14.85;;;6.65;;
35444;SDS011;21562;49.476;6.086;2023-07-16T08:48:11;17.27;;;7.45;;
35444;SDS011;21562;49.476;6.086;2023-07-16T08:50:37;15.13;;;7.10;;
35444;SDS011;21562;49.476;6.086;2023-07-16T08:53:06;18.60;;;7.20;;
35444;SDS011;21562;49.476;6.086;2023-07-16T08:55:33;22.77;;;7.55;;
35444;SDS011;21562;49.476;6.086;2023-07-16T08:58:01;13.55;;;6.72;;
35444;SDS011;21562;49.476;6.086;2023-07-16T09:00:29;20.27;;;7.47;;
35444;SDS011;21562;49.476;6.086;2023-07-16T09:02:55;15.73;;;7.55;;
35444;SDS011;21562;49.476;6.086;2023-07-16T09:05:21;17.08;;;7.93;;
35444;SDS011;21562;49.476;6.086;2023-07-16T09:07:47;15.77;;;6.03;;
35444;SDS011;21562;49.476;6.086;2023-07-16T09:10:13;14.13;;;7.43;;
35444;SDS011;21562;49.476;6.086;2023-07-16T09:12:43;15.77;;;7.63;;
35444;SDS011;21562;49.476;6.086;2023-07-16T09:15:09;15.57;;;6.63;;
35444;SDS011;21562;49.476;6.086;2023-07-16T09:17:36;17.25;;;7.05;;
35444;SDS011;21562;49.476;6.086;2023-07-16T09:20:03;16.88;;;7.30;;
35444;SDS011;21562;49.476;6.086;2023-07-16T09:22:31;15.13;;;6.10;;
35444;SDS011;21562;49.476;6.086;2023-07-16T09:24:59;16.35;;;6.95;;
35444;SDS011;21562;49.476;6.086;2023-07-16T09:27:30;16.73;;;6.30;;
35444;SDS011;21562;49.476;6.086;2023-07-16T09:29:56;17.30;;;6.63;;
35444;SDS011;21562;49.476;6.086;2023-07-16T09:32:32;9.77;;;5.70;;
35444;SDS011;21562;49.476;6.086;2023-07-16T09:35:01;18.52;;;6.15;;
35444;SDS011;21562;49.476;6.086;2023-07-16T09:37:32;16.60;;;6.88;;
35444;SDS011;21562;49.476;6.086;2023-07-16T09:39:58;18.08;;;7.03;;
35444;SDS011;21562;49.476;6.086;2023-07-16T09:42:24;11.68;;;5.60;;
35444;SDS011;21562;49.476;6.086;2023-07-16T09:44:50;12.05;;;6.15;;
35444;SDS011;21562;49.476;6.086;2023-07-16T09:47:19;11.18;;;6.13;;
35444;SDS011;21562;49.476;6.086;2023-07-16T09:49:44;10.93;;;6.07;;
35444;SDS011;21562;49.476;6.086;2023-07-16T09:52:11;24.42;;;6.53;;
35444;SDS011;21562;49.476;6.086;2023-07-16T09:54:38;15.25;;;6.10;;
35444;SDS011;21562;49.476;6.086;2023-07-16T09:57:05;14.50;;;5.95;;
35444;SDS011;21562;49.476;6.086;2023-07-16T09:59:32;16.58;;;6.28;;
35444;SDS011;21562;49.476;6.086;2023-07-16T10:01:59;16.35;;;6.43;;
35444;SDS011;21562;49.476;6.086;2023-07-16T10:04:25;11.85;;;6.25;;
35444;SDS011;21562;49.476;6.086;2023-07-16T10:07:01;15.32;;;5.10;;
35444;SDS011;21562;49.476;6.086;2023-07-16T10:09:51;18.63;;;5.65;;
35444;SDS011;21562;49.476;6.086;2023-07-16T10:12:22;16.83;;;8.07;;
35444;SDS011;21562;49.476;6.086;2023-07-16T10:14:52;15.75;;;5.07;;
35444;SDS011;21562;49.476;6.086;2023-07-16T10:17:22;12.50;;;4.72;;
35444;SDS011;21562;49.476;6.086;2023-07-16T10:19:55;13.95;;;6.53;;
35444;SDS011;21562;49.476;6.086;2023-07-16T10:27:46;13.38;;;5.03;;
35444;SDS011;21562;49.476;6.086;2023-07-16T10:30:12;13.23;;;6.40;;
35444;SDS011;21562;49.476;6.086;2023-07-16T10:32:38;14.57;;;5.47;;
35444;SDS011;21562;49.476;6.086;2023-07-16T10:35:05;16.73;;;5.55;;
35444;SDS011;21562;49.476;6.086;2023-07-16T10:37:33;9.50;;;4.50;;
35444;SDS011;21562;49.476;6.086;2023-07-16T10:39:59;35.10;;;7.00;;
35444;SDS011;21562;49.476;6.086;2023-07-16T10:42:26;9.95;;;5.38;;
35444;SDS011;21562;49.476;6.086;2023-07-16T10:44:54;12.65;;;4.45;;
35444;SDS011;21562;49.476;6.086;2023-07-16T10:47:28;15.55;;;4.90;;
35444;SDS011;21562;49.476;6.086;2023-07-16T10:49:54;11.63;;;5.95;;
35444;SDS011;21562;49.476;6.086;2023-07-16T10:52:20;16.45;;;5.55;;
35444;SDS011;21562;49.476;6.086;2023-07-16T10:54:47;11.18;;;5.72;;
35444;SDS011;21562;49.476;6.086;2023-07-16T10:57:15;13.02;;;5.65;;
35444;SDS011;21562;49.476;6.086;2023-07-16T10:59:41;17.55;;;5.22;;
35444;SDS011;21562;49.476;6.086;2023-07-16T11:02:11;14.27;;;4.85;;
35444;SDS011;21562;49.476;6.086;2023-07-16T11:04:38;12.30;;;4.80;;
35444;SDS011;21562;49.476;6.086;2023-07-16T11:07:05;11.93;;;5.50;;
35444;SDS011;21562;49.476;6.086;2023-07-16T11:09:33;11.35;;;5.10;;
35444;SDS011;21562;49.476;6.086;2023-07-16T11:12:06;11.27;;;5.82;;
35444;SDS011;21562;49.476;6.086;2023-07-16T11:14:36;21.20;;;5.75;;
35444;SDS011;21562;49.476;6.086;2023-07-16T11:17:06;11.80;;;5.10;;
35444;SDS011;21562;49.476;6.086;2023-07-16T11:19:33;11.15;;;5.65;;
35444;SDS011;21562;49.476;6.086;2023-07-16T11:22:00;11.00;;;5.47;;
35444;SDS011;21562;49.476;6.086;2023-07-16T11:24:27;8.98;;;4.68;;
35444;SDS011;21562;49.476;6.086;2023-07-16T11:26:56;10.20;;;4.75;;
35444;SDS011;21562;49.476;6.086;2023-07-16T11:29:24;15.27;;;5.22;;
35444;SDS011;21562;49.476;6.086;2023-07-16T11:31:51;10.18;;;4.07;;
35444;SDS011;21562;49.476;6.086;2023-07-16T11:34:20;11.45;;;4.70;;
35444;SDS011;21562;49.476;6.086;2023-07-16T11:36:49;12.15;;;4.85;;
35444;SDS011;21562;49.476;6.086;2023-07-16T11:39:15;11.38;;;5.15;;
35444;SDS011;21562;49.476;6.086;2023-07-16T11:41:40;9.55;;;4.30;;
35444;SDS011;21562;49.476;6.086;2023-07-16T11:44:09;11.50;;;5.05;;
35444;SDS011;21562;49.476;6.086;2023-07-16T11:46:36;9.45;;;4.82;;
35444;SDS011;21562;49.476;6.086;2023-07-16T11:49:01;14.15;;;5.40;;
35444;SDS011;21562;49.476;6.086;2023-07-16T11:51:27;12.45;;;4.60;;
35444;SDS011;21562;49.476;6.086;2023-07-16T11:53:54;10.07;;;5.50;;
35444;SDS011;21562;49.476;6.086;2023-07-16T11:56:21;8.25;;;4.93;;
35444;SDS011;21562;49.476;6.086;2023-07-16T11:58:47;9.98;;;4.05;;
35444;SDS011;21562;49.476;6.086;2023-07-16T12:01:13;15.27;;;5.95;;
35444;SDS011;21562;49.476;6.086;2023-07-16T12:03:40;12.63;;;4.88;;
35444;SDS011;21562;49.476;6.086;2023-07-16T12:06:05;11.02;;;4.40;;
35444;SDS011;21562;49.476;6.086;2023-07-16T12:08:31;9.93;;;4.85;;
35444;SDS011;21562;49.476;6.086;2023-07-16T12:10:57;10.02;;;4.55;;
35444;SDS011;21562;49.476;6.086;2023-07-16T12:13:22;10.68;;;4.85;;
35444;SDS011;21562;49.476;6.086;2023-07-16T12:15:48;13.50;;;4.63;;
35444;SDS011;21562;49.476;6.086;2023-07-16T12:18:14;15.05;;;5.22;;
35444;SDS011;21562;49.476;6.086;2023-07-16T12:20:39;10.48;;;4.97;;
35444;SDS011;21562;49.476;6.086;2023-07-16T12:23:05;11.60;;;4.88;;
35444;SDS011;21562;49.476;6.086;2023-07-16T12:25:31;8.63;;;4.10;;
35444;SDS011;21562;49.476;6.086;2023-07-16T12:27:56;17.85;;;5.53;;
35444;SDS011;21562;49.476;6.086;2023-07-16T12:30:23;6.80;;;4.47;;
35444;SDS011;21562;49.476;6.086;2023-07-16T12:32:49;10.75;;;4.35;;
35444;SDS011;21562;49.476;6.086;2023-07-16T12:35:15;10.38;;;4.70;;
35444;SDS011;21562;49.476;6.086;2023-07-16T12:37:41;9.23;;;4.43;;
35444;SDS011;21562;49.476;6.086;2023-07-16T12:40:06;10.52;;;4.60;;
35444;SDS011;21562;49.476;6.086;2023-07-16T12:42:32;13.52;;;5.40;;
35444;SDS011;21562;49.476;6.086;2023-07-16T12:44:58;9.93;;;4.97;;
35444;SDS011;21562;49.476;6.086;2023-07-16T12:47:24;10.10;;;5.05;;
35444;SDS011;21562;49.476;6.086;2023-07-16T12:49:50;8.73;;;4.78;;
35444;SDS011;21562;49.476;6.086;2023-07-16T12:52:15;12.18;;;5.47;;
35444;SDS011;21562;49.476;6.086;2023-07-16T12:54:41;9.90;;;4.28;;
35444;SDS011;21562;49.476;6.086;2023-07-16T12:57:06;14.43;;;5.18;;
35444;SDS011;21562;49.476;6.086;2023-07-16T12:59:32;13.10;;;5.10;;
35444;SDS011;21562;49.476;6.086;2023-07-16T13:01:57;15.00;;;5.18;;
35444;SDS011;21562;49.476;6.086;2023-07-16T13:04:23;14.32;;;5.03;;
35444;SDS011;21562;49.476;6.086;2023-07-16T13:06:49;7.78;;;4.32;;
35444;SDS011;21562;49.476;6.086;2023-07-16T13:09:14;8.13;;;4.78;;
35444;SDS011;21562;49.476;6.086;2023-07-16T13:11:41;12.00;;;4.70;;
35444;SDS011;21562;49.476;6.086;2023-07-16T13:14:07;12.32;;;5.93;;
35444;SDS011;21562;49.476;6.086;2023-07-16T13:16:33;9.20;;;4.95;;
35444;SDS011;21562;49.476;6.086;2023-07-16T13:18:59;9.63;;;4.70;;
35444;SDS011;21562;49.476;6.086;2023-07-16T13:21:24;9.07;;;5.28;;
35444;SDS011;21562;49.476;6.086;2023-07-16T13:23:50;13.85;;;4.53;;
35444;SDS011;21562;49.476;6.086;2023-07-16T13:26:15;12.35;;;4.25;;
35444;SDS011;21562;49.476;6.086;2023-07-16T13:28:41;14.73;;;5.40;;
35444;SDS011;21562;49.476;6.086;2023-07-16T13:31:07;9.27;;;4.40;;
35444;SDS011;21562;49.476;6.086;2023-07-16T13:33:32;10.98;;;4.88;;
35444;SDS011;21562;49.476;6.086;2023-07-16T13:35:58;10.20;;;5.28;;
35444;SDS011;21562;49.476;6.086;2023-07-16T13:38:26;9.30;;;5.03;;
35444;SDS011;21562;49.476;6.086;2023-07-16T13:40:52;15.15;;;4.70;;
35444;SDS011;21562;49.476;6.086;2023-07-16T13:43:17;10.10;;;5.22;;
35444;SDS011;21562;49.476;6.086;2023-07-16T13:45:43;10.38;;;4.63;;
35444;SDS011;21562;49.476;6.086;2023-07-16T13:48:08;10.80;;;4.90;;
35444;SDS011;21562;49.476;6.086;2023-07-16T13:50:34;10.77;;;4.72;;
35444;SDS011;21562;49.476;6.086;2023-07-16T13:53:00;9.43;;;4.90;;
35444;SDS011;21562;49.476;6.086;2023-07-16T13:55:27;9.98;;;5.22;;
35444;SDS011;21562;49.476;6.086;2023-07-16T13:57:54;15.95;;;4.85;;
35444;SDS011;21562;49.476;6.086;2023-07-16T14:00:23;8.82;;;4.53;;
35444;SDS011;21562;49.476;6.086;2023-07-16T14:02:48;8.27;;;4.93;;
35444;SDS011;21562;49.476;6.086;2023-07-16T14:05:14;9.80;;;4.90;;
35444;SDS011;21562;49.476;6.086;2023-07-16T14:07:40;11.35;;;5.10;;
35444;SDS011;21562;49.476;6.086;2023-07-16T14:10:06;9.00;;;4.57;;
35444;SDS011;21562;49.476;6.086;2023-07-16T14:12:32;12.48;;;5.10;;
35444;SDS011;21562;49.476;6.086;2023-07-16T14:14:59;9.85;;;4.70;;
35444;SDS011;21562;49.476;6.086;2023-07-16T14:17:25;10.40;;;5.22;;
35444;SDS011;21562;49.476;6.086;2023-07-16T14:19:50;14.98;;;4.97;;
35444;SDS011;21562;49.476;6.086;2023-07-16T14:22:16;9.93;;;5.22;;
35444;SDS011;21562;49.476;6.086;2023-07-16T14:24:42;13.18;;;5.30;;
35444;SDS011;21562;49.476;6.086;2023-07-16T14:27:07;14.30;;;5.35;;
35444;SDS011;21562;49.476;6.086;2023-07-16T14:29:36;11.05;;;4.68;;
35444;SDS011;21562;49.476;6.086;2023-07-16T14:32:02;10.48;;;5.07;;
35444;SDS011;21562;49.476;6.086;2023-07-16T14:34:28;13.48;;;5.78;;
35444;SDS011;21562;49.476;6.086;2023-07-16T14:36:54;9.18;;;4.90;;
35444;SDS011;21562;49.476;6.086;2023-07-16T14:39:19;11.93;;;4.88;;
35444;SDS011;21562;49.476;6.086;2023-07-16T14:41:46;13.10;;;4.90;;
35444;SDS011;21562;49.476;6.086;2023-07-16T14:44:11;8.05;;;4.75;;